Time;durP1;ratioP1;P1;durP2;ratioP2;P2;SDS_P1;SDS_P2;PMS_P1;PMS_P2;Temp;Humidity;BMP_temperature;BMP_pressure;BME280_temperature;BME280_humidity;BME280_pressure;Samples;Min_cycle;Max_cycle;Signal;HPM_P1;HPM_P2
2022/11/14 00:01:11;;;;;;;109.60;55.85;;;;;;;4.60;73.05;101752.25;4955133;28;20043;-68
2022/11/14 00:03:38;;;;;;;109.70;55.97;;;;;;;4.66;72.71;101752.72;4954574;28;20043;-70
2022/11/14 00:06:06;;;;;;;108.18;55.15;;;;;;;4.77;72.79;101744.06;4955148;28;20047;-69
2022/11/14 00:08:33;;;;;;;120.28;56.10;;;;;;;4.62;73.05;101743.22;4954784;28;20544;-68
2022/11/14 00:10:59;;;;;;;115.50;58.13;;;;;;;4.71;72.46;101739.97;4954119;28;20066;-68
2022/11/14 00:13:26;;;;;;;113.97;56.30;;;;;;;4.31;73.78;101742.47;4954216;28;20063;-71
2022/11/14 00:15:55;;;;;;;119.82;58.50;;;;;;;4.62;73.20;101737.06;4953775;28;20054;-70
2022/11/14 00:18:22;;;;;;;115.15;56.10;;;;;;;4.46;73.61;101731.88;4954723;28;20078;-69
2022/11/14 00:20:50;;;;;;;119.55;57.88;;;;;;;4.49;73.50;101740.50;4954504;28;20051;-68
2022/11/14 00:23:18;;;;;;;105.22;56.25;;;;;;;4.62;73.59;101734.38;4954118;28;20055;-68
2022/11/14 00:25:45;;;;;;;117.30;56.83;;;;;;;4.52;73.65;101729.69;4953885;28;20054;-69
2022/11/14 00:28:12;;;;;;;122.30;57.22;;;;;;;4.54;72.93;101719.78;4949952;28;20082;-70
2022/11/14 00:30:39;;;;;;;117.22;57.33;;;;;;;4.48;73.66;101724.63;4955096;28;20105;-69
2022/11/14 00:33:05;;;;;;;117.10;56.83;;;;;;;4.51;73.59;101722.63;4954491;28;20408;-70
2022/11/14 00:35:31;;;;;;;129.88;60.20;;;;;;;4.48;73.69;101719.31;4953904;28;20055;-68
2022/11/14 00:37:58;;;;;;;121.38;59.35;;;;;;;4.59;73.26;101708.88;4932578;28;20051;-70
2022/11/14 00:40:24;;;;;;;124.45;58.78;;;;;;;4.37;74.15;101713.78;4965730;28;20043;-70
2022/11/14 00:42:51;;;;;;;123.10;60.92;;;;;;;4.37;74.24;101714.63;4954684;28;20492;-68
2022/11/14 00:45:17;;;;;;;122.55;58.35;;;;;;;4.38;74.02;101710.22;4953570;28;20499;-69
2022/11/14 00:47:44;;;;;;;124.68;58.75;;;;;;;4.27;74.42;101714.34;4954297;28;20043;-69
2022/11/14 00:50:10;;;;;;;130.38;60.28;;;;;;;4.45;73.89;101711.53;4954297;28;20058;-69
2022/11/14 00:52:37;;;;;;;128.55;59.75;;;;;;;4.32;74.26;101706.97;4939162;28;20511;-70
2022/11/14 00:55:04;;;;;;;125.75;60.28;;;;;;;4.37;74.25;101703.16;4956557;28;20050;-70
2022/11/14 00:57:30;;;;;;;127.15;59.40;;;;;;;4.25;74.43;101697.69;4972722;28;20406;-70
2022/11/14 00:59:57;;;;;;;129.60;60.90;;;;;;;4.43;73.82;101700.16;4972981;28;20051;-70
2022/11/14 01:02:23;;;;;;;129.63;59.97;;;;;;;4.30;74.40;101689.41;4971231;28;20496;-69
2022/11/14 01:04:50;;;;;;;127.93;61.10;;;;;;;4.39;74.35;101694.19;4972794;28;20495;-68
2022/11/14 01:07:16;;;;;;;127.38;60.03;;;;;;;4.38;74.24;101694.28;4972960;28;20120;-70
2022/11/14 01:09:43;;;;;;;133.25;59.55;;;;;;;4.16;74.88;101689.41;4972531;28;20051;-68
2022/11/14 01:12:09;;;;;;;130.30;60.38;;;;;;;4.32;74.50;101690.19;4972480;28;20046;-68
2022/11/14 01:14:35;;;;;;;138.02;62.25;;;;;;;4.40;74.14;101682.59;4972665;28;20047;-68
2022/11/14 01:17:02;;;;;;;130.52;63.08;;;;;;;4.25;74.34;101673.78;4973036;28;20073;-68
2022/11/14 01:19:29;;;;;;;132.50;61.42;;;;;;;4.13;74.54;101679.81;4972663;28;20065;-68
2022/11/14 01:21:55;;;;;;;133.98;63.15;;;;;;;4.21;74.75;101677.56;4972925;28;20049;-68
2022/11/14 01:24:24;;;;;;;150.02;65.13;;;;;;;4.22;74.36;101671.31;4972880;28;20059;-68
2022/11/14 01:26:54;;;;;;;146.13;64.72;;;;;;;4.31;74.58;101670.75;4971615;28;20047;-69
2022/11/14 01:29:21;;;;;;;136.88;64.75;;;;;;;4.39;74.31;101670.28;4972693;28;20418;-70
2022/11/14 01:31:48;;;;;;;147.70;63.75;;;;;;;4.28;74.40;101662.09;4971932;28;20046;-69
2022/11/14 01:34:14;;;;;;;144.25;62.40;;;;;;;4.39;73.86;101656.16;4972053;28;20046;-68
2022/11/14 01:36:41;;;;;;;144.20;63.90;;;;;;;4.26;74.49;101656.03;4972995;28;20049;-69
2022/11/14 01:39:07;;;;;;;145.23;63.25;;;;;;;4.19;74.77;101658.22;4972137;28;20042;-71
2022/11/14 01:41:34;;;;;;;145.02;66.22;;;;;;;4.27;74.42;101653.25;4972068;28;20043;-69
2022/11/14 01:44:00;;;;;;;140.30;62.25;;;;;;;4.25;74.44;101655.19;4971893;28;20442;-69
2022/11/14 01:46:35;;;;;;;157.75;67.30;;;;;;;4.13;74.46;101641.81;4972860;28;20055;-69
2022/11/14 01:49:10;;;;;;;145.23;65.32;;;;;;;4.17;74.92;101649.47;4968262;28;20062;-68
2022/11/14 01:51:50;;;;;;;155.02;64.57;;;;;;;4.28;74.56;101639.06;4972880;28;20050;-69
2022/11/14 01:54:26;;;;;;;146.20;62.72;;;;;;;4.18;74.80;101639.72;4970667;28;20054;-68
2022/11/14 01:56:59;;;;;;;152.55;65.57;;;;;;;4.06;75.18;101628.91;4953423;28;20050;-69
2022/11/14 01:59:36;;;;;;;146.73;63.88;;;;;;;4.21;74.70;101639.50;4952001;28;20055;-68
2022/11/14 02:02:09;;;;;;;141.20;63.17;;;;;;;4.13;74.70;101634.69;4952157;28;20043;-69
2022/11/14 02:04:40;;;;;;;159.07;66.53;;;;;;;4.12;74.70;101627.69;4952948;28;20046;-69
2022/11/14 02:07:13;;;;;;;155.82;65.53;;;;;;;4.04;75.54;101628.16;4952852;28;20120;-68
2022/11/14 02:09:46;;;;;;;155.77;66.00;;;;;;;4.17;75.58;101628.22;4951801;28;20046;-68
2022/11/14 02:12:16;;;;;;;152.63;64.85;;;;;;;4.09;75.49;101614.59;4951877;28;20058;-68
2022/11/14 02:14:44;;;;;;;157.68;65.57;;;;;;;4.09;75.51;101615.44;4952488;28;20047;-69
2022/11/14 02:17:13;;;;;;;145.13;60.35;;;;;;;4.03;75.81;101609.66;4952509;28;20058;-69
2022/11/14 02:20:05;;;;;;;153.23;64.60;;;;;;;4.15;75.10;101605.41;4952480;28;20051;-70
2022/11/14 02:22:32;;;;;;;151.07;65.28;;;;;;;4.17;75.41;101608.78;4952800;28;20059;-70
2022/11/14 02:24:58;;;;;;;163.85;65.90;;;;;;;4.37;74.54;101607.53;4952676;28;20500;-69
2022/11/14 02:27:25;;;;;;;166.00;66.60;;;;;;;4.28;74.67;101608.97;4951664;28;20058;-68
2022/11/14 02:29:51;;;;;;;155.93;63.85;;;;;;;4.36;74.83;101608.47;4952344;28;20061;-70
2022/11/14 02:32:18;;;;;;;153.15;65.40;;;;;;;4.53;74.20;101605.63;4951691;28;20419;-70
2022/11/14 02:34:44;;;;;;;148.75;65.07;;;;;;;4.40;73.97;101599.41;4952252;28;20492;-71
2022/11/14 02:37:11;;;;;;;155.60;64.30;;;;;;;4.55;73.89;101590.41;4951906;28;20428;-70
2022/11/14 02:39:37;;;;;;;160.00;65.63;;;;;;;4.68;73.35;101599.31;4948886;28;20062;-69
2022/11/14 02:42:04;;;;;;;155.82;65.47;;;;;;;4.63;73.71;101596.09;4952297;28;20047;-71
2022/11/14 02:44:30;;;;;;;156.52;66.90;;;;;;;4.77;73.02;101589.88;4952092;28;20517;-68
2022/11/14 02:46:57;;;;;;;143.38;64.18;;;;;;;4.73;73.01;101589.22;4953812;28;20043;-69
2022/11/14 02:49:23;;;;;;;152.98;62.95;;;;;;;4.93;72.47;101589.69;4954997;28;20420;-71
2022/11/14 02:51:50;;;;;;;152.50;65.47;;;;;;;4.58;73.64;101577.78;4955651;28;20058;-69
2022/11/14 02:54:16;;;;;;;150.13;63.90;;;;;;;4.65;73.38;101577.38;4956813;28;20062;-70
2022/11/14 02:56:43;;;;;;;147.35;61.92;;;;;;;4.66;73.07;101576.41;4955620;28;20047;-70
2022/11/14 02:59:09;;;;;;;149.98;64.60;;;;;;;4.73;73.28;101573.28;4956027;28;20077;-69
2022/11/14 03:01:35;;;;;;;148.45;61.92;;;;;;;4.78;72.70;101575.63;4954446;28;20500;-70
2022/11/14 03:04:02;;;;;;;148.73;62.10;;;;;;;4.86;72.89;101567.13;4955618;28;20488;-70
2022/11/14 03:06:29;;;;;;;149.25;62.28;;;;;;;4.61;73.28;101563.44;4955904;28;20055;-70
2022/11/14 03:08:56;;;;;;;140.68;60.45;;;;;;;4.58;73.67;101561.00;4951186;28;20047;-68
2022/11/14 03:11:22;;;;;;;149.27;60.88;;;;;;;4.61;73.50;101567.91;4955417;28;20058;-70
2022/11/14 03:13:48;;;;;;;143.45;60.67;;;;;;;4.57;73.07;101562.81;4951960;28;20051;-69
2022/11/14 03:16:15;;;;;;;140.90;59.78;;;;;;;4.59;72.92;101557.41;4956419;28;20047;-70
2022/11/14 03:18:41;;;;;;;136.93;57.90;;;;;;;4.66;73.10;101556.03;4955288;28;20043;-70
2022/11/14 03:21:17;;;;;;;147.90;61.85;;;;;;;4.71;73.18;101561.88;4955141;28;20047;-70
2022/11/14 03:23:43;;;;;;;140.48;58.88;;;;;;;4.56;73.28;101558.44;4954850;28;20051;-71
2022/11/14 03:26:11;;;;;;;154.63;61.13;;;;;;;4.66;73.00;101561.34;4955493;28;20062;-68
2022/11/14 03:28:38;;;;;;;140.50;60.03;;;;;;;4.61;73.02;101551.97;4954770;28;20047;-69
2022/11/14 03:31:06;;;;;;;141.95;58.60;;;;;;;4.55;73.25;101547.91;4954627;28;20095;-70
2022/11/14 03:33:33;;;;;;;141.00;57.85;;;;;;;4.61;72.77;101552.81;4953280;28;20439;-70
2022/11/14 03:36:00;;;;;;;141.77;57.65;;;;;;;4.76;72.35;101554.47;4954245;28;20058;-69
2022/11/14 03:38:27;;;;;;;134.43;57.05;;;;;;;4.55;72.85;101547.91;4954815;28;20058;-69
2022/11/14 03:40:57;;;;;;;143.15;56.25;;;;;;;4.65;72.60;101543.69;4954436;28;20047;-69
2022/11/14 03:43:23;;;;;;;142.18;57.70;;;;;;;4.69;72.48;101536.34;4954722;28;20086;-70
2022/11/14 03:45:50;;;;;;;136.25;55.88;;;;;;;4.56;72.65;101533.69;4955177;28;20058;-71
2022/11/14 03:48:16;;;;;;;150.43;58.60;;;;;;;4.55;72.98;101526.63;4956121;28;20055;-70
2022/11/14 03:50:43;;;;;;;136.57;57.40;;;;;;;4.63;72.83;101531.47;4954852;28;20043;-69
2022/11/14 03:53:10;;;;;;;149.95;59.85;;;;;;;4.54;73.08;101519.63;4953904;28;20043;-69
2022/11/14 03:55:37;;;;;;;132.27;56.92;;;;;;;4.38;73.54;101518.94;4954658;28;20051;-70
2022/11/14 03:58:04;;;;;;;137.68;57.10;;;;;;;4.51;73.21;101520.69;4953018;28;20054;-71
2022/11/14 04:00:30;;;;;;;148.77;59.30;;;;;;;4.45;73.36;101517.56;4955201;28;20050;-71
2022/11/14 04:02:57;;;;;;;145.90;59.38;;;;;;;4.32;73.58;101517.50;4954866;28;20055;-70
2022/11/14 04:05:23;;;;;;;137.13;58.85;;;;;;;4.33;73.57;101519.22;4954796;28;20039;-70
2022/11/14 04:07:50;;;;;;;150.10;58.67;;;;;;;4.25;74.20;101509.09;4955310;28;20051;-70
2022/11/14 04:10:17;;;;;;;143.27;57.28;;;;;;;4.33;74.00;101506.78;4954438;28;20051;-69
2022/11/14 04:12:48;;;;;;;142.55;59.72;;;;;;;4.47;73.46;101513.03;4953954;28;20059;-69
2022/11/14 04:15:15;;;;;;;146.38;58.97;;;;;;;4.61;72.94;101504.97;4954373;28;20439;-70
2022/11/14 04:17:42;;;;;;;148.98;60.50;;;;;;;4.65;72.59;101501.16;4952844;28;20518;-70
2022/11/14 04:20:10;;;;;;;148.48;59.60;;;;;;;4.35;73.54;101506.69;4951619;28;20408;-70
2022/11/14 04:22:36;;;;;;;143.32;58.38;;;;;;;4.47;73.09;101513.03;4953247;28;20046;-71
2022/11/14 04:25:04;;;;;;;143.40;57.65;;;;;;;4.29;73.25;101507.94;4953831;28;20051;-70
2022/11/14 04:27:30;;;;;;;154.10;59.35;;;;;;;4.49;73.09;101513.78;4953212;28;20047;-69
2022/11/14 04:29:56;;;;;;;143.30;57.97;;;;;;;4.50;73.09;101513.66;4953942;28;20047;-69
2022/11/14 04:32:23;;;;;;;149.63;60.92;;;;;;;4.50;72.95;101504.84;4954024;28;20046;-70
2022/11/14 04:34:49;;;;;;;157.90;60.65;;;;;;;4.44;73.02;101491.97;4953275;28;20044;-69
2022/11/14 04:37:16;;;;;;;145.70;57.40;;;;;;;4.09;74.25;101492.44;4951909;28;20058;-68
2022/11/14 04:39:43;;;;;;;142.43;59.17;;;;;;;4.38;73.90;101500.34;4948969;28;20558;-70
2022/11/14 04:42:09;;;;;;;162.40;60.95;;;;;;;4.41;73.23;101489.50;4952263;28;20519;-69
2022/11/14 04:44:36;;;;;;;153.20;60.25;;;;;;;4.35;73.41;101493.41;4952034;28;20514;-71
2022/11/14 04:47:02;;;;;;;156.55;60.03;;;;;;;4.42;73.33;101499.19;4946072;28;20098;-70
2022/11/14 04:49:29;;;;;;;153.00;59.63;;;;;;;4.56;72.81;101492.00;4952198;28;20057;-70
2022/11/14 04:51:55;;;;;;;153.05;60.33;;;;;;;4.54;72.83;101483.28;4953194;28;20054;-70
2022/11/14 04:54:22;;;;;;;147.20;59.67;;;;;;;4.33;72.94;101485.53;4954317;28;20067;-70
2022/11/14 04:56:48;;;;;;;155.15;60.53;;;;;;;4.42;73.10;101489.41;4969836;28;20050;-70
2022/11/14 04:59:15;;;;;;;151.60;59.15;;;;;;;4.46;72.81;101480.28;4973460;28;20058;-70
2022/11/14 05:01:46;;;;;;;151.45;59.28;;;;;;;4.59;72.78;101480.34;4972990;28;20534;-70
2022/11/14 05:04:13;;;;;;;161.57;61.35;;;;;;;4.61;72.29;101477.56;4973644;28;20053;-70
2022/11/14 05:06:39;;;;;;;160.65;62.15;;;;;;;4.19;73.30;101477.59;4972470;28;20058;-70
2022/11/14 05:09:06;;;;;;;159.07;60.28;;;;;;;4.36;73.33;101478.31;4972057;28;20042;-70
2022/11/14 05:11:32;;;;;;;160.07;61.15;;;;;;;4.41;73.02;101477.06;4970498;28;20050;-70
2022/11/14 05:13:59;;;;;;;159.50;60.30;;;;;;;4.46;72.79;101474.97;4972975;28;20051;-70
2022/11/14 05:16:25;;;;;;;148.73;59.25;;;;;;;4.41;72.88;101476.22;4973563;28;20046;-70
2022/11/14 05:18:53;;;;;;;163.75;60.05;;;;;;;4.32;73.28;101483.81;4972474;28;20051;-70
2022/11/14 05:21:20;;;;;;;162.52;60.20;;;;;;;4.10;73.72;101475.53;4972058;28;20046;-70
2022/11/14 05:23:46;;;;;;;151.38;60.22;;;;;;;4.19;73.46;101477.59;4970992;28;20087;-70
2022/11/14 05:26:17;;;;;;;155.85;59.45;;;;;;;4.26;73.33;101475.41;4971929;28;20050;-70
2022/11/14 05:28:44;;;;;;;153.23;58.58;;;;;;;4.28;73.30;101466.38;4971868;28;20046;-70
2022/11/14 05:31:13;;;;;;;162.43;61.47;;;;;;;4.17;73.40;101460.91;4971572;28;20057;-70
2022/11/14 05:33:40;;;;;;;152.02;60.47;;;;;;;4.13;73.59;101455.91;4970691;28;20047;-69
2022/11/14 05:36:14;;;;;;;157.13;60.17;;;;;;;3.91;74.27;101464.44;4971722;28;20499;-70
2022/11/14 05:38:41;;;;;;;166.40;62.30;;;;;;;4.27;73.43;101462.00;4970780;28;20038;-70
2022/11/14 05:41:14;;;;;;;160.18;62.25;;;;;;;4.25;73.59;101455.13;4970377;28;20472;-71
2022/11/14 05:43:40;;;;;;;168.60;62.22;;;;;;;4.26;73.42;101457.66;4972585;28;20050;-70
2022/11/14 05:46:10;;;;;;;162.35;62.53;;;;;;;4.06;74.03;101458.09;4972533;28;20419;-70
2022/11/14 05:48:37;;;;;;;155.45;59.50;;;;;;;4.18;73.88;101456.47;4972758;28;20090;-70
2022/11/14 05:51:05;;;;;;;167.32;60.85;;;;;;;4.11;73.61;101461.34;4970563;28;20042;-70
2022/11/14 05:53:32;;;;;;;162.10;59.25;;;;;;;3.97;74.09;101450.75;4971464;28;20388;-69
2022/11/14 05:56:00;;;;;;;157.75;60.00;;;;;;;4.03;73.97;101450.34;4960312;28;20051;-68
2022/11/14 05:58:27;;;;;;;176.98;62.97;;;;;;;4.11;73.94;101453.38;4951835;28;20047;-70
2022/11/14 06:01:01;;;;;;;152.77;60.70;;;;;;;4.05;74.01;101449.28;4945985;28;20050;-69
2022/11/14 06:03:36;;;;;;;179.50;63.00;;;;;;;4.08;73.90;101454.41;4962487;28;20051;-69
2022/11/14 06:06:05;;;;;;;165.98;61.25;;;;;;;4.06;74.40;101452.81;4952004;28;20055;-69
2022/11/14 06:08:32;;;;;;;161.00;61.38;;;;;;;4.05;74.24;101446.66;4951478;28;20046;-69
2022/11/14 06:11:10;;;;;;;168.82;61.15;;;;;;;3.99;74.21;101447.03;4952818;28;20126;-70
2022/11/14 06:13:37;;;;;;;159.65;58.28;;;;;;;3.74;74.68;101441.63;4951077;28;20047;-69
2022/11/14 06:16:06;;;;;;;169.57;62.38;;;;;;;3.95;74.47;101442.03;4947232;28;20054;-69
2022/11/14 06:18:34;;;;;;;159.85;61.65;;;;;;;4.11;73.97;101445.41;4962273;28;20047;-71
2022/11/14 06:21:04;;;;;;;163.90;60.35;;;;;;;4.03;73.67;101453.00;4951033;28;20047;-69
2022/11/14 06:23:30;;;;;;;153.90;58.78;;;;;;;3.79;74.77;101445.69;4949745;28;20047;-69
2022/11/14 06:26:02;;;;;;;167.20;61.97;;;;;;;3.88;74.32;101440.72;4952957;28;20051;-70
2022/11/14 06:28:29;;;;;;;163.82;62.42;;;;;;;4.01;73.60;101453.13;4951539;28;20047;-70
2022/11/14 06:30:57;;;;;;;163.27;60.42;;;;;;;4.13;73.57;101450.59;4952109;28;20114;-70
2022/11/14 06:33:25;;;;;;;167.57;61.15;;;;;;;4.16;73.42;101445.09;4952007;28;20058;-70
2022/11/14 06:36:00;;;;;;;169.95;62.53;;;;;;;4.20;72.97;101438.63;4951134;28;20050;-68
2022/11/14 06:38:29;;;;;;;164.65;60.15;;;;;;;4.04;73.31;101436.13;4951721;28;20054;-69
2022/11/14 06:41:02;;;;;;;165.32;63.78;;;;;;;4.11;73.00;101442.75;4952445;28;20519;-69
2022/11/14 06:43:32;;;;;;;164.88;59.67;;;;;;;4.16;73.14;101439.78;4952497;28;20059;-68
2022/11/14 06:45:58;;;;;;;162.95;60.25;;;;;;;4.05;73.40;101443.13;4952499;28;20047;-70
2022/11/14 06:48:25;;;;;;;165.52;58.65;;;;;;;4.14;73.34;101442.56;4952013;28;20070;-70
2022/11/14 06:50:52;;;;;;;160.60;59.38;;;;;;;4.09;73.34;101455.25;4951178;28;20066;-68
2022/11/14 06:53:19;;;;;;;161.27;59.17;;;;;;;3.96;73.32;101449.03;4951833;28;20051;-68
2022/11/14 06:55:57;;;;;;;156.55;61.55;;;;;;;4.08;73.73;101445.59;4959919;28;20051;-69
2022/11/14 06:58:32;;;;;;;159.50;59.08;;;;;;;4.05;73.51;101451.09;4964771;28;20054;-69
2022/11/14 07:01:15;;;;;;;169.82;60.78;;;;;;;4.26;72.92;101448.84;4969251;28;20043;-69
2022/11/14 07:03:43;;;;;;;167.32;61.03;;;;;;;4.27;72.72;101446.06;4970341;28;20050;-68
2022/11/14 07:06:12;;;;;;;159.57;59.97;;;;;;;4.40;71.74;101450.63;4970240;28;20450;-69
2022/11/14 07:08:39;;;;;;;163.05;62.05;;;;;;;4.49;72.01;101453.53;4971273;28;20053;-69
2022/11/14 07:11:21;;;;;;;156.35;60.05;;;;;;;4.11;72.92;101453.38;4970564;28;20502;-70
2022/11/14 07:13:52;;;;;;;156.77;60.70;;;;;;;4.37;72.42;101456.09;4970871;28;20121;-69
2022/11/14 07:16:22;;;;;;;166.07;59.08;;;;;;;4.25;72.59;101455.97;4972331;28;20058;-69
2022/11/14 07:18:48;;;;;;;165.40;62.00;;;;;;;4.38;72.43;101455.16;4971621;28;20047;-70
2022/11/14 07:21:15;;;;;;;164.35;61.17;;;;;;;4.24;72.92;101453.41;4971989;28;20495;-69
2022/11/14 07:23:41;;;;;;;160.85;59.65;;;;;;;4.04;73.62;101452.91;4972401;28;20365;-69
2022/11/14 07:26:10;;;;;;;161.43;60.67;;;;;;;4.21;73.14;101449.16;4972505;28;20507;-71
2022/11/14 07:28:39;;;;;;;164.38;60.25;;;;;;;4.44;72.36;101442.34;4970479;28;20051;-71
2022/11/14 07:31:07;;;;;;;153.77;59.50;;;;;;;4.31;72.46;101452.91;4971201;28;20124;-69
2022/11/14 07:33:34;;;;;;;153.68;59.35;;;;;;;4.46;72.33;101455.53;4973962;28;20053;-71
2022/11/14 07:36:00;;;;;;;162.25;60.50;;;;;;;4.39;72.54;101444.47;4974801;28;20047;-70
2022/11/14 07:38:29;;;;;;;149.45;56.95;;;;;;;4.38;72.78;101439.22;4975114;28;20093;-69
2022/11/14 07:40:57;;;;;;;152.65;58.65;;;;;;;4.37;72.50;101438.34;4975176;28;20051;-69
2022/11/14 07:43:26;;;;;;;158.10;60.88;;;;;;;4.36;72.50;101436.66;4973025;28;20053;-69
2022/11/14 07:45:57;;;;;;;150.20;57.88;;;;;;;4.57;71.86;101435.25;4975184;28;20051;-69
2022/11/14 07:48:24;;;;;;;123.75;44.65;;;;;;;4.49;72.01;101442.03;4974169;28;20047;-69
2022/11/14 07:50:50;;;;;;;162.02;59.78;;;;;;;4.63;71.62;101434.00;4973571;28;20039;-70
2022/11/14 07:53:18;;;;;;;148.40;58.13;;;;;;;4.77;71.04;101423.25;4974131;28;20051;-70
2022/11/14 07:55:44;;;;;;;136.27;56.50;;;;;;;4.66;71.28;101433.78;4965342;28;20047;-69
2022/11/14 07:58:11;;;;;;;150.50;55.92;;;;;;;4.57;71.51;101429.09;4955042;28;20066;-68
2022/11/14 08:00:37;;;;;;;155.20;57.75;;;;;;;4.65;71.67;101431.22;4955113;28;20457;-68
2022/11/14 08:03:06;;;;;;;150.20;56.50;;;;;;;4.85;71.11;101435.16;4955179;28;20051;-69
2022/11/14 08:05:32;;;;;;;148.07;56.50;;;;;;;4.91;70.88;101432.94;4955256;28;20047;-69
2022/11/14 08:07:59;;;;;;;134.05;54.22;;;;;;;4.64;71.17;101432.19;4955078;28;20051;-68
2022/11/14 08:10:25;;;;;;;137.55;56.10;;;;;;;4.79;70.99;101428.47;4954707;28;20039;-68
2022/11/14 08:13:00;;;;;;;137.73;53.65;;;;;;;4.99;70.39;101437.72;4953777;28;20070;-69
2022/11/14 08:15:46;;;;;;;142.90;56.72;;;;;;;5.11;69.71;101434.22;4955022;28;20055;-70
2022/11/14 08:18:13;;;;;;;137.50;52.15;;;;;;;5.08;69.84;101430.94;4952706;28;20062;-70
2022/11/14 08:20:39;;;;;;;132.32;52.92;;;;;;;4.76;71.05;101434.84;4953653;28;20419;-70
2022/11/14 08:23:06;;;;;;;132.68;52.63;;;;;;;4.76;70.85;101424.22;4954274;28;20043;-68
2022/11/14 08:25:32;;;;;;;137.48;54.50;;;;;;;4.91;70.12;101418.81;4954653;28;20106;-68
2022/11/14 08:27:59;;;;;;;134.23;52.00;;;;;;;5.21;69.27;101424.63;4954643;28;20055;-69
2022/11/14 08:30:25;;;;;;;124.85;52.90;;;;;;;5.05;69.47;101411.56;4954653;28;20050;-69
2022/11/14 08:32:52;;;;;;;134.75;54.15;;;;;;;5.05;69.48;101419.53;4953429;28;20435;-68
2022/11/14 08:35:18;;;;;;;132.63;54.78;;;;;;;4.93;69.98;101411.56;4954435;28;20058;-69
2022/11/14 08:37:45;;;;;;;129.77;52.67;;;;;;;5.39;69.10;101411.84;4953402;28;20047;-71
2022/11/14 08:40:11;;;;;;;131.52;52.35;;;;;;;5.02;69.76;101410.91;4954316;28;20062;-68
2022/11/14 08:42:38;;;;;;;119.47;50.58;;;;;;;5.16;69.66;101413.47;4954077;28;20039;-68
2022/11/14 08:45:05;;;;;;;125.15;51.83;;;;;;;4.80;69.79;101415.06;4954242;28;20047;-68
2022/11/14 08:47:31;;;;;;;112.65;48.28;;;;;;;4.89;70.40;101407.41;4954546;28;20054;-68
2022/11/14 08:49:58;;;;;;;123.03;50.10;;;;;;;4.75;70.43;101416.34;4954830;28;20062;-70
2022/11/14 08:52:24;;;;;;;119.28;50.80;;;;;;;4.98;69.88;101407.63;4953909;28;20039;-68
2022/11/14 08:54:51;;;;;;;132.52;52.22;;;;;;;5.25;68.89;101402.19;4954979;28;20058;-69
2022/11/14 08:57:17;;;;;;;123.10;50.30;;;;;;;5.27;68.51;101407.38;4973159;28;20053;-70
2022/11/14 08:59:44;;;;;;;115.78;48.08;;;;;;;5.39;68.44;101408.31;4973166;28;20043;-68
2022/11/14 09:02:13;;;;;;;130.27;52.03;;;;;;;5.22;68.67;101399.72;4966130;28;20047;-68
2022/11/14 09:04:40;;;;;;;130.35;49.65;;;;;;;5.17;68.72;101401.84;4973171;28;20077;-69
2022/11/14 09:07:07;;;;;;;116.20;50.03;;;;;;;5.33;68.32;101406.09;4973629;28;20415;-68
2022/11/14 09:09:34;;;;;;;126.82;51.45;;;;;;;5.33;68.30;101396.31;4971369;28;20125;-69
2022/11/14 09:12:00;;;;;;;119.88;48.10;;;;;;;5.25;68.72;101386.22;4972163;28;20495;-68
2022/11/14 09:14:27;;;;;;;117.53;49.95;;;;;;;5.46;67.69;101385.63;4972590;28;20495;-71
2022/11/14 09:16:53;;;;;;;129.57;51.08;;;;;;;5.34;68.62;101378.53;4973164;28;20406;-70
2022/11/14 09:19:20;;;;;;;121.15;49.97;;;;;;;5.36;68.73;101384.59;4972020;28;20051;-70
2022/11/14 09:21:46;;;;;;;119.60;47.63;;;;;;;5.32;68.21;101377.78;4973193;28;20038;-69
2022/11/14 09:24:14;;;;;;;117.60;48.00;;;;;;;5.94;66.96;101375.00;4972529;28;20051;-70
2022/11/14 09:26:40;;;;;;;117.63;46.40;;;;;;;6.07;66.30;101373.13;4971379;28;20050;-69
2022/11/14 09:29:07;;;;;;;127.25;49.80;;;;;;;6.60;64.39;101383.34;4972394;28;20050;-71
2022/11/14 09:31:34;;;;;;;136.32;48.88;;;;;;;6.97;62.77;101378.69;4972219;28;20466;-70
2022/11/14 09:34:00;;;;;;;127.30;46.50;;;;;;;7.35;61.21;101380.13;4972845;28;20058;-69
2022/11/14 09:36:27;;;;;;;98.20;43.60;;;;;;;7.10;61.43;101375.91;4971138;28;20043;-70
2022/11/14 09:38:54;;;;;;;129.73;46.22;;;;;;;7.47;61.03;101389.00;4972098;28;20479;-71
2022/11/14 09:41:41;;;;;;;107.05;43.10;;;;;;;7.91;59.62;101398.72;4972531;28;20053;-71
2022/11/14 09:44:13;;;;;;;88.95;41.22;;;;;;;8.28;58.12;101391.16;4971368;28;20062;-69
2022/11/14 09:46:52;;;;;;;88.18;40.75;;;;;;;8.23;57.82;101388.06;4971990;28;20049;-69
2022/11/14 09:49:41;;;;;;;85.93;41.25;;;;;;;8.72;56.67;101391.91;4971003;28;20059;-71
2022/11/14 09:52:16;;;;;;;84.20;38.63;;;;;;;8.82;55.93;101379.44;4971451;28;20043;-70
2022/11/14 09:54:56;;;;;;;87.30;39.03;;;;;;;9.15;55.26;101363.22;4971233;28;20061;-71
2022/11/14 09:57:24;;;;;;;84.55;39.55;;;;;;;8.82;55.79;101359.88;4951420;28;20508;-68
2022/11/14 09:59:51;;;;;;;84.55;39.17;;;;;;;9.02;55.03;101367.00;4952464;28;20055;-69
2022/11/14 10:02:40;;;;;;;83.75;38.35;;;;;;;9.46;54.20;101354.19;4952920;28;20142;-70
2022/11/14 10:05:21;;;;;;;73.47;36.95;;;;;;;9.42;53.55;101344.75;4943199;28;20049;-70
2022/11/14 10:08:18;;;;;;;76.28;37.90;;;;;;;9.68;53.02;101347.78;4951183;28;20047;-70
2022/11/14 10:10:53;;;;;;;79.20;36.92;;;;;;;9.84;52.74;101349.03;4952463;28;20053;-70
2022/11/14 10:13:28;;;;;;;74.18;37.00;;;;;;;9.57;53.14;101356.75;4952646;28;20062;-69
2022/11/14 10:16:07;;;;;;;77.35;37.33;;;;;;;9.69;52.95;101352.13;4952664;28;20047;-70
2022/11/14 10:18:47;;;;;;;69.70;36.67;;;;;;;9.80;52.72;101348.47;4952675;28;20050;-69
2022/11/14 10:21:35;;;;;;;71.57;35.95;;;;;;;9.85;52.26;101342.69;4951365;28;20047;-70
2022/11/14 10:24:39;;;;;;;73.80;36.95;;;;;;;9.84;52.38;101363.28;4952475;28;20059;-70
2022/11/14 10:27:23;;;;;;;73.60;36.45;;;;;;;9.99;51.84;101351.19;4952595;28;20051;-71
2022/11/14 10:30:01;;;;;;;66.63;35.85;;;;;;;9.92;51.75;101341.13;4952451;28;20047;-69
2022/11/14 10:32:57;;;;;;;69.03;36.38;;;;;;;9.74;52.40;101336.47;4952090;28;20047;-70
2022/11/14 10:35:49;;;;;;;69.93;35.60;;;;;;;9.40;53.37;101324.44;4932900;28;20052;-70
2022/11/14 10:38:24;;;;;;;72.28;35.88;;;;;;;9.50;53.34;101331.50;4951049;28;20047;-70
2022/11/14 10:40:59;;;;;;;72.00;35.72;;;;;;;9.54;53.25;101334.75;4951989;28;20047;-69
2022/11/14 10:43:31;;;;;;;72.88;35.45;;;;;;;9.54;52.98;101322.22;4951952;28;20055;-69
2022/11/14 10:46:12;;;;;;;73.32;35.78;;;;;;;9.41;53.33;101318.97;4950711;28;20047;-69
2022/11/14 10:48:42;;;;;;;73.10;34.97;;;;;;;9.58;53.13;101317.44;4946367;28;20051;-71
2022/11/14 10:51:30;;;;;;;75.75;35.70;;;;;;;9.94;51.99;101313.22;4952661;28;20098;-69
2022/11/14 10:54:38;;;;;;;68.00;35.10;;;;;;;9.80;52.67;101302.91;4950409;28;20511;-69
2022/11/14 10:57:13;;;;;;;76.25;36.42;;;;;;;9.87;52.50;101306.72;4919532;28;20055;-69
2022/11/14 10:59:41;;;;;;;74.05;37.50;;;;;;;10.14;51.64;101299.81;4932178;28;20077;-69
2022/11/14 11:02:08;;;;;;;76.10;35.65;;;;;;;10.48;51.09;101292.13;4932873;28;20389;-69
2022/11/14 11:04:37;;;;;;;73.10;35.97;;;;;;;10.46;50.82;101294.91;4932587;28;20047;-71
2022/11/14 11:07:06;;;;;;;76.50;36.30;;;;;;;10.34;51.32;101300.59;4933053;28;20464;-71
2022/11/14 11:12:44;;;;;;;64.95;33.20;;;;;;;11.45;48.53;101283.59;4936003;28;20043;-71
2022/11/14 11:15:26;;;;;;;63.92;33.60;;;;;;;11.22;48.96;101294.75;4934965;28;20107;-71
2022/11/14 11:18:00;;;;;;;63.35;35.22;;;;;;;11.46;48.14;101288.81;4934658;28;20065;-71
2022/11/14 11:20:36;;;;;;;63.78;32.95;;;;;;;11.05;48.80;101281.31;4942160;28;20126;-70
2022/11/14 11:23:16;;;;;;;62.90;33.60;;;;;;;10.88;49.35;101280.25;4936165;28;20063;-70